Time;durP1;ratioP1;P1;durP2;ratioP2;P2;SDS_P1;SDS_P2;PMS_P1;PMS_P2;Temp;Humidity;BMP_temperature;BMP_pressure;BME280_temperature;BME280_humidity;BME280_pressure;Samples;Min_cycle;Max_cycle;Signal;HPM_P1;HPM_P2
2023/05/26 00:02:05;;;;;;;4.43;3.15;;;;;;;22.34;48.80;96601.41;5033535;28;20021;-33
2023/05/26 00:04:31;;;;;;;5.93;3.47;;;;;;;22.18;49.00;96593.84;5033303;28;20377;-33
2023/05/26 00:06:56;;;;;;;6.18;3.80;;;;;;;22.42;48.42;96596.88;5046739;28;20051;-33
2023/05/26 00:09:23;;;;;;;4.85;3.47;;;;;;;22.28;48.71;96592.34;5035566;28;20152;-33
2023/05/26 00:11:49;;;;;;;5.53;3.50;;;;;;;22.35;48.73;96594.63;5038670;28;20125;-33
2023/05/26 00:14:15;;;;;;;4.93;3.65;;;;;;;22.40;48.78;96593.13;5032009;28;20112;-33
2023/05/26 00:16:42;;;;;;;6.30;4.18;;;;;;;22.41;48.27;96589.09;5025997;28;20022;-33
2023/05/26 00:19:08;;;;;;;4.55;3.20;;;;;;;22.44;48.39;96588.09;5031868;28;20025;-34
2023/05/26 00:21:38;;;;;;;5.90;3.75;;;;;;;22.45;48.41;96590.38;5034847;28;20087;-33
2023/05/26 00:24:03;;;;;;;7.07;3.60;;;;;;;22.31;48.46;96593.34;5049516;28;20108;-33
2023/05/26 00:26:29;;;;;;;6.00;3.72;;;;;;;22.30;49.02;96589.09;5041209;28;20045;-33
2023/05/26 00:28:54;;;;;;;5.43;3.65;;;;;;;22.44;48.41;96577.03;5036919;28;20526;-33
2023/05/26 00:31:20;;;;;;;6.03;3.53;;;;;;;22.51;47.89;96582.06;5036579;28;20448;-33
2023/05/26 00:33:45;;;;;;;5.60;3.80;;;;;;;22.40;48.31;96576.53;5037037;28;20017;-33
2023/05/26 00:36:10;;;;;;;9.00;3.88;;;;;;;22.47;48.40;96578.81;5036487;28;20112;-33
2023/05/26 00:38:36;;;;;;;5.35;3.75;;;;;;;22.38;48.51;96581.81;5036709;28;20107;-33
2023/05/26 00:41:01;;;;;;;4.78;3.83;;;;;;;22.32;48.60;96576.28;5043750;28;20028;-33
2023/05/26 00:43:27;;;;;;;5.43;3.90;;;;;;;22.28;48.88;96575.78;5036276;28;20029;-33
2023/05/26 00:45:52;;;;;;;8.57;4.20;;;;;;;22.33;48.95;96580.56;5036657;28;20418;-33
2023/05/26 00:48:17;;;;;;;7.15;4.00;;;;;;;22.28;48.97;96572.25;5041773;28;20607;-33
2023/05/26 00:50:43;;;;;;;5.57;3.80;;;;;;;22.42;48.29;96571.25;5036332;28;20022;-33
2023/05/26 00:53:10;;;;;;;4.75;4.00;;;;;;;22.26;48.71;96567.22;5036379;28;20083;-33
2023/05/26 00:55:35;;;;;;;5.82;4.20;;;;;;;22.40;48.30;96563.47;5041594;28;20024;-35
2023/05/26 00:58:01;;;;;;;6.70;3.78;;;;;;;22.21;48.77;96565.22;5045678;28;20350;-34
2023/05/26 01:00:27;;;;;;;9.48;3.78;;;;;;;22.35;48.48;96557.97;5043057;28;20025;-33
2023/05/26 01:02:56;;;;;;;5.95;3.80;;;;;;;22.15;48.95;96561.69;5036530;28;20028;-33
2023/05/26 01:05:22;;;;;;;4.53;3.42;;;;;;;22.19;48.93;96567.72;5045043;28;20017;-33
2023/05/26 01:07:48;;;;;;;5.25;3.80;;;;;;;22.20;48.83;96564.47;5041177;28;20044;-34
2023/05/26 01:10:14;;;;;;;5.60;3.92;;;;;;;22.36;48.41;96562.97;5034566;28;20056;-35
2023/05/26 01:12:47;;;;;;;4.78;3.75;;;;;;;22.29;48.32;96566.22;5041992;28;20529;-33
2023/05/26 01:15:23;;;;;;;7.93;3.95;;;;;;;22.35;47.99;96553.19;5042860;28;20035;-33
2023/05/26 01:18:05;;;;;;;4.78;3.47;;;;;;;22.16;48.36;96563.19;5029987;28;20104;-33
2023/05/26 01:20:45;;;;;;;8.00;3.72;;;;;;;22.32;47.91;96565.22;5036036;28;20108;-33
2023/05/26 01:23:29;;;;;;;3.92;3.45;;;;;;;22.37;47.99;96561.72;5036024;28;20017;-33
2023/05/26 01:26:06;;;;;;;5.95;3.60;;;;;;;22.27;47.85;96563.22;5035899;28;20113;-33
2023/05/26 01:28:33;;;;;;;4.97;3.67;;;;;;;22.34;47.49;96562.72;5042891;28;20021;-33
2023/05/26 01:30:59;;;;;;;5.45;3.67;;;;;;;22.28;47.43;96561.19;5039260;28;20016;-33
2023/05/26 01:33:25;;;;;;;5.05;3.65;;;;;;;22.05;47.91;96558.41;5038003;28;20464;-33
2023/05/26 01:35:50;;;;;;;5.07;3.50;;;;;;;22.32;47.56;96559.72;5035620;28;20045;-33
2023/05/26 01:38:16;;;;;;;5.60;3.53;;;;;;;22.17;48.06;96567.47;5035663;28;20109;-33
2023/05/26 01:40:43;;;;;;;6.13;3.90;;;;;;;22.18;48.14;96560.69;5035526;28;20017;-33
2023/05/26 01:43:23;;;;;;;7.13;3.92;;;;;;;22.30;47.50;96553.94;5043068;28;20067;-33
2023/05/26 01:45:54;;;;;;;4.40;4.00;;;;;;;22.32;47.55;96559.72;5042578;28;20028;-33
2023/05/26 01:48:21;;;;;;;6.13;3.78;;;;;;;22.30;47.94;96553.94;5035951;28;20021;-33
2023/05/26 01:50:56;;;;;;;4.57;3.40;;;;;;;22.18;47.72;96555.16;5035017;28;20029;-33
2023/05/26 01:53:26;;;;;;;6.85;3.60;;;;;;;22.22;47.67;96547.41;5028448;28;20045;-34
2023/05/26 01:55:54;;;;;;;8.48;4.20;;;;;;;22.17;48.17;96548.13;5034914;28;20034;-33
2023/05/26 01:58:21;;;;;;;4.68;3.40;;;;;;;22.18;48.03;96549.66;5049474;28;20045;-33
2023/05/26 02:00:47;;;;;;;6.57;3.60;;;;;;;22.00;48.33;96544.59;5041103;28;20045;-33
2023/05/26 02:03:13;;;;;;;4.63;3.70;;;;;;;22.09;48.58;96547.13;5035594;28;20068;-33
2023/05/26 02:05:39;;;;;;;4.93;3.60;;;;;;;22.33;47.85;96549.41;5039207;28;20036;-33
2023/05/26 02:08:05;;;;;;;4.15;3.45;;;;;;;22.27;47.49;96546.63;5037047;28;20390;-33
2023/05/26 02:10:30;;;;;;;5.03;3.35;;;;;;;22.26;48.05;96545.13;5035242;28;20029;-34
2023/05/26 02:12:56;;;;;;;4.57;3.50;;;;;;;22.22;47.61;96541.88;5034901;28;20019;-33
2023/05/26 02:15:21;;;;;;;6.57;3.92;;;;;;;22.03;48.03;96544.34;5042021;28;20031;-33
2023/05/26 02:17:47;;;;;;;5.38;3.58;;;;;;;22.28;47.26;96548.13;5041954;28;20022;-33
2023/05/26 02:20:14;;;;;;;4.55;3.30;;;;;;;22.18;47.79;96547.63;5034830;28;20025;-34
2023/05/26 02:22:40;;;;;;;5.70;3.72;;;;;;;22.17;47.86;96537.09;5035141;28;20040;-33
2023/05/26 02:25:06;;;;;;;4.65;3.78;;;;;;;22.23;47.44;96540.63;5042250;28;20383;-33
2023/05/26 02:27:31;;;;;;;5.03;3.75;;;;;;;22.29;47.18;96543.38;5033839;28;20377;-33
2023/05/26 02:29:57;;;;;;;4.07;3.28;;;;;;;22.06;47.43;96542.59;5037008;28;20017;-33
2023/05/26 02:32:23;;;;;;;5.82;3.28;;;;;;;22.13;47.68;96540.09;5038083;28;20492;-33
2023/05/26 02:34:48;;;;;;;4.15;3.10;;;;;;;22.21;47.14;96545.88;5041916;28;20505;-33
2023/05/26 02:37:17;;;;;;;4.25;2.90;;;;;;;22.04;47.53;96540.34;5034049;28;20523;-33
2023/05/26 02:39:43;;;;;;;4.63;3.95;;;;;;;22.20;48.02;96545.13;5034427;28;20036;-33
2023/05/26 02:42:08;;;;;;;4.97;3.50;;;;;;;22.30;47.15;96539.34;5037965;28;20025;-33
2023/05/26 02:44:34;;;;;;;7.25;3.60;;;;;;;22.19;47.58;96538.09;5038113;28;20025;-33
2023/05/26 02:46:59;;;;;;;4.57;3.20;;;;;;;22.12;47.40;96540.63;5042726;28;20494;-33
2023/05/26 02:49:25;;;;;;;3.95;3.50;;;;;;;22.20;47.46;96533.31;5044570;28;20104;-33
2023/05/26 02:51:50;;;;;;;4.72;3.60;;;;;;;22.34;46.98;96526.81;5036339;28;20040;-34
2023/05/26 02:54:15;;;;;;;5.68;3.47;;;;;;;21.74;48.00;96534.47;5034215;28;20053;-33
2023/05/26 02:56:42;;;;;;;4.25;3.28;;;;;;;22.11;47.63;96536.34;5032574;28;20116;-34
2023/05/26 02:59:07;;;;;;;3.70;2.90;;;;;;;22.13;47.54;96531.06;5034229;28;20028;-33
2023/05/26 03:01:33;;;;;;;3.67;3.17;;;;;;;22.05;47.24;96535.56;5033863;28;20473;-33
2023/05/26 03:03:58;;;;;;;4.85;3.50;;;;;;;21.88;48.36;96536.25;5041017;28;20036;-33
2023/05/26 03:06:24;;;;;;;4.30;3.40;;;;;;;21.94;47.40;96538.28;5034906;28;20013;-33
2023/05/26 03:08:50;;;;;;;6.22;3.50;;;;;;;22.06;47.57;96531.56;5033919;28;20013;-33
2023/05/26 03:11:15;;;;;;;4.80;3.20;;;;;;;22.10;47.56;96540.34;5032808;28;20116;-33
2023/05/26 03:13:41;;;;;;;4.40;3.63;;;;;;;22.04;46.95;96534.81;5033903;28;20017;-33
2023/05/26 03:16:06;;;;;;;4.55;3.58;;;;;;;21.93;47.18;96528.47;5033780;28;20030;-33
2023/05/26 03:18:32;;;;;;;6.15;3.30;;;;;;;21.99;47.47;96532.06;5035627;28;20033;-33
2023/05/26 03:20:58;;;;;;;4.18;3.25;;;;;;;21.95;47.93;96542.56;5038980;28;20018;-34
2023/05/26 03:23:24;;;;;;;4.45;3.30;;;;;;;21.99;47.25;96532.06;5040841;28;20021;-33
2023/05/26 03:25:50;;;;;;;4.50;3.42;;;;;;;21.84;47.65;96537.75;5033715;28;20036;-33
2023/05/26 03:28:16;;;;;;;5.38;3.42;;;;;;;21.97;46.73;96540.81;5033610;28;20033;-33
2023/05/26 03:30:41;;;;;;;7.50;3.30;;;;;;;21.95;47.16;96534.28;5033933;28;20036;-33
2023/05/26 03:33:07;;;;;;;4.82;2.95;;;;;;;22.00;46.72;96547.38;5040669;28;20057;-33
2023/05/26 03:35:32;;;;;;;5.95;3.40;;;;;;;22.16;46.75;96546.63;5040390;28;20024;-33
2023/05/26 03:37:58;;;;;;;4.28;3.10;;;;;;;22.06;46.90;96542.59;5033671;28;20384;-33
2023/05/26 03:40:23;;;;;;;4.65;3.22;;;;;;;22.04;46.86;96542.34;5033397;28;20029;-33
2023/05/26 03:42:48;;;;;;;4.95;3.40;;;;;;;21.98;47.50;96547.09;5041324;28;20472;-33
2023/05/26 03:45:15;;;;;;;4.03;3.10;;;;;;;21.92;47.48;96538.78;5037611;28;20170;-33
2023/05/26 03:47:41;;;;;;;5.72;3.40;;;;;;;22.12;46.96;96548.91;5043812;28;20024;-33
2023/05/26 03:50:06;;;;;;;4.40;3.22;;;;;;;22.01;47.14;96551.63;5040623;28;20469;-33
2023/05/26 03:52:32;;;;;;;5.30;3.25;;;;;;;21.85;47.21;96547.56;5040511;28;20071;-33
2023/05/26 03:54:58;;;;;;;3.33;2.97;;;;;;;21.88;47.17;96551.34;5033597;28;20040;-33
2023/05/26 03:57:23;;;;;;;5.47;3.20;;;;;;;21.88;47.63;96543.81;5034185;28;20014;-32
2023/05/26 03:59:54;;;;;;;4.68;3.25;;;;;;;21.95;46.95;96553.59;5035628;28;20033;-33
2023/05/26 04:02:19;;;;;;;5.35;3.42;;;;;;;21.85;47.30;96548.31;5050230;28;20033;-34
2023/05/26 04:04:45;;;;;;;4.25;3.33;;;;;;;22.01;46.92;96548.84;5042816;28;20032;-33
2023/05/26 04:07:10;;;;;;;4.50;3.25;;;;;;;21.95;47.09;96550.84;5039499;28;20018;-33
2023/05/26 04:09:36;;;;;;;4.65;2.90;;;;;;;21.96;47.08;96555.09;5042966;28;20021;-33
2023/05/26 04:12:01;;;;;;;4.82;2.80;;;;;;;21.97;46.70;96556.63;5037357;28;20060;-33
2023/05/26 04:14:27;;;;;;;5.07;2.92;;;;;;;21.91;46.73;96564.13;5037581;28;20053;-33
2023/05/26 04:16:52;;;;;;;5.07;3.03;;;;;;;21.91;46.52;96555.84;5036966;28;20013;-33
2023/05/26 04:19:18;;;;;;;4.72;3.17;;;;;;;21.91;47.06;96556.59;5043807;28;20037;-33
2023/05/26 04:21:43;;;;;;;5.38;3.78;;;;;;;21.73;47.82;96554.31;5043884;28;20450;-33
2023/05/26 04:24:09;;;;;;;4.25;3.25;;;;;;;21.84;47.03;96548.81;5044258;28;20025;-33
2023/05/26 04:26:34;;;;;;;4.38;2.97;;;;;;;21.90;46.88;96548.81;5036812;28;20627;-33
2023/05/26 04:29:00;;;;;;;3.75;2.67;;;;;;;21.91;46.82;96553.84;5036894;28;20025;-33
2023/05/26 04:31:29;;;;;;;4.25;2.78;;;;;;;21.98;46.87;96558.13;5036527;28;20469;-33
2023/05/26 04:33:57;;;;;;;7.07;3.20;;;;;;;22.00;46.77;96561.94;5046038;28;20040;-33
2023/05/26 04:36:24;;;;;;;5.10;3.47;;;;;;;21.92;47.35;96562.88;5040442;28;20021;-33
2023/05/26 04:38:49;;;;;;;4.68;3.25;;;;;;;21.92;47.27;96571.91;5043849;28;20104;-33
2023/05/26 04:41:16;;;;;;;5.00;3.45;;;;;;;21.88;47.33;96556.84;5043970;28;20422;-33
2023/05/26 04:43:43;;;;;;;4.35;3.42;;;;;;;21.79;48.02;96566.84;5043929;28;20033;-33
2023/05/26 04:46:10;;;;;;;5.55;3.70;;;;;;;22.00;47.40;96561.94;5035494;28;20159;-34
2023/05/26 04:48:37;;;;;;;4.25;3.13;;;;;;;21.68;48.62;96571.59;5043458;28;20029;-33
2023/05/26 04:51:03;;;;;;;4.28;3.40;;;;;;;21.80;47.88;96571.13;5043488;28;20029;-33
2023/05/26 04:53:29;;;;;;;7.45;4.10;;;;;;;21.90;47.39;96573.66;5040979;28;20045;-33
2023/05/26 04:55:54;;;;;;;8.77;4.30;;;;;;;22.02;47.18;96578.75;5038408;28;20381;-33
2023/05/26 04:58:20;;;;;;;3.92;3.40;;;;;;;21.94;47.53;96574.94;5036526;28;20017;-33
2023/05/26 05:00:45;;;;;;;8.27;3.97;;;;;;;21.58;48.40;96578.56;5036440;28;20025;-33
2023/05/26 05:03:10;;;;;;;4.72;3.33;;;;;;;21.83;48.11;96575.66;5036417;28;20086;-34
2023/05/26 05:05:36;;;;;;;3.72;3.33;;;;;;;21.95;47.77;96576.44;5040419;28;20021;-33
2023/05/26 05:08:01;;;;;;;4.05;3.22;;;;;;;21.92;47.74;96571.16;5044782;28;20396;-34
2023/05/26 05:10:27;;;;;;;4.18;3.38;;;;;;;21.76;47.95;96583.69;5050541;28;20025;-33
2023/05/26 05:12:53;;;;;;;4.57;3.33;;;;;;;22.09;47.50;96581.03;5035950;28;20100;-33
2023/05/26 05:15:19;;;;;;;8.07;3.42;;;;;;;21.91;48.02;96575.91;5035941;28;20053;-33
2023/05/26 05:17:46;;;;;;;4.82;3.10;;;;;;;21.96;48.23;96583.47;5036175;28;20021;-33
2023/05/26 05:20:12;;;;;;;4.75;3.13;;;;;;;22.05;47.60;96586.03;5035934;28;20017;-33
2023/05/26 05:22:37;;;;;;;3.88;3.10;;;;;;;22.08;47.66;96581.53;5038245;28;20029;-33
2023/05/26 05:25:03;;;;;;;4.38;2.90;;;;;;;22.07;47.76;96586.28;5048432;28;20022;-33
2023/05/26 05:27:29;;;;;;;7.28;2.90;;;;;;;21.99;48.42;96585.28;5043377;28;20021;-33
2023/05/26 05:29:54;;;;;;;3.78;3.08;;;;;;;22.09;48.49;96594.09;5042628;28;20019;-33
2023/05/26 05:32:19;;;;;;;4.32;3.47;;;;;;;22.03;48.37;96585.00;5035509;28;20029;-33
2023/05/26 05:34:45;;;;;;;4.25;3.17;;;;;;;21.99;48.10;96592.81;5035687;28;20072;-33
2023/05/26 05:37:10;;;;;;;3.85;2.95;;;;;;;22.14;48.10;96593.31;5035461;28;20025;-33
2023/05/26 05:39:36;;;;;;;3.63;2.90;;;;;;;22.03;48.34;96593.31;5042183;28;20419;-33
2023/05/26 05:42:01;;;;;;;5.90;3.30;;;;;;;22.15;48.40;96592.06;5037789;28;20025;-33
2023/05/26 05:44:27;;;;;;;5.10;3.10;;;;;;;22.02;48.83;96598.06;5035551;28;20033;-33
2023/05/26 05:46:52;;;;;;;3.33;2.90;;;;;;;21.97;48.47;96598.03;5034394;28;20036;-33
2023/05/26 05:49:18;;;;;;;4.95;3.28;;;;;;;21.97;48.60;96596.03;5043966;28;20020;-33
2023/05/26 05:51:43;;;;;;;3.40;2.85;;;;;;;22.26;48.17;96594.84;5038909;28;20033;-33
2023/05/26 05:54:08;;;;;;;5.03;3.33;;;;;;;22.16;48.31;96599.09;5035111;28;20049;-33
2023/05/26 05:56:34;;;;;;;4.20;3.25;;;;;;;21.96;48.45;96597.28;5042255;28;20021;-33
2023/05/26 05:58:59;;;;;;;5.28;3.42;;;;;;;22.14;48.46;96599.59;5042550;28;20476;-33
2023/05/26 06:01:25;;;;;;;3.70;2.95;;;;;;;22.00;48.68;96603.34;5027757;28;20370;-33
2023/05/26 06:03:51;;;;;;;4.15;3.10;;;;;;;22.19;48.60;96600.88;5035119;28;20021;-33
2023/05/26 06:06:17;;;;;;;4.95;3.10;;;;;;;21.88;48.74;96601.03;5042743;28;20386;-33
2023/05/26 06:08:42;;;;;;;7.13;3.20;;;;;;;22.03;49.13;96612.63;5039415;28;20025;-33
2023/05/26 06:11:07;;;;;;;4.88;2.83;;;;;;;22.20;48.31;96605.16;5037819;28;20056;-34
2023/05/26 06:13:34;;;;;;;5.20;3.15;;;;;;;22.09;48.74;96610.66;5041558;28;20571;-33
2023/05/26 06:15:59;;;;;;;4.18;3.00;;;;;;;22.18;49.03;96605.66;5041954;28;20028;-33
2023/05/26 06:18:24;;;;;;;3.63;2.92;;;;;;;22.25;48.77;96615.47;5034984;28;20029;-33
2023/05/26 06:20:50;;;;;;;4.57;3.08;;;;;;;22.11;49.09;96611.66;5034451;28;20064;-33
2023/05/26 06:23:16;;;;;;;3.65;3.08;;;;;;;22.07;48.87;96610.41;5034725;28;20028;-34
2023/05/26 06:25:42;;;;;;;4.95;3.15;;;;;;;22.26;48.81;96616.94;5040875;28;20021;-33
2023/05/26 06:28:07;;;;;;;4.93;2.83;;;;;;;22.25;48.87;96625.75;5038596;28;20040;-33
2023/05/26 06:30:33;;;;;;;4.25;2.95;;;;;;;22.25;48.89;96612.72;5043316;28;20480;-33
2023/05/26 06:32:58;;;;;;;6.85;3.25;;;;;;;22.26;48.93;96618.97;5041442;28;20408;-33
2023/05/26 06:35:24;;;;;;;4.43;3.03;;;;;;;22.19;49.13;96628.50;5034498;28;20025;-33
2023/05/26 06:37:49;;;;;;;3.67;2.88;;;;;;;22.18;49.33;96624.22;5034790;28;20071;-33
2023/05/26 06:40:16;;;;;;;5.20;3.50;;;;;;;22.34;48.74;96620.00;5034389;28;20030;-33
2023/05/26 06:42:41;;;;;;;5.13;3.60;;;;;;;22.16;49.26;96629.50;5041474;28;20036;-33
2023/05/26 06:45:07;;;;;;;3.88;3.00;;;;;;;22.29;49.42;96627.00;5041747;28;20025;-33
2023/05/26 06:47:32;;;;;;;4.38;3.17;;;;;;;22.44;48.44;96624.78;5034787;28;20029;-33
2023/05/26 06:49:58;;;;;;;3.80;3.17;;;;;;;22.19;49.23;96634.03;5034285;28;20017;-33
2023/05/26 06:52:23;;;;;;;4.47;3.08;;;;;;;22.41;49.33;96628.53;5034039;28;20033;-31
2023/05/26 06:54:50;;;;;;;3.38;2.80;;;;;;;22.44;49.08;96633.06;5034258;28;20496;-33
2023/05/26 06:57:17;;;;;;;5.80;3.13;;;;;;;22.47;49.14;96637.59;5036768;28;20044;-34
2023/05/26 06:59:43;;;;;;;3.67;3.13;;;;;;;22.30;49.52;96633.28;5038300;28;20045;-33
2023/05/26 07:02:09;;;;;;;4.00;3.28;;;;;;;22.42;49.09;96638.34;5041224;28;20020;-33
2023/05/26 07:04:35;;;;;;;3.88;3.17;;;;;;;22.47;49.09;96634.84;5033974;28;20539;-33
2023/05/26 07:07:00;;;;;;;7.63;3.63;;;;;;;22.53;49.15;96634.84;5040856;28;20013;-34
2023/05/26 07:09:26;;;;;;;4.38;3.25;;;;;;;22.55;49.35;96638.59;5034533;28;20028;-33
2023/05/26 07:11:52;;;;;;;4.22;3.20;;;;;;;22.67;48.74;96644.16;5033282;28;20036;-35
2023/05/26 07:14:17;;;;;;;3.30;3.00;;;;;;;22.50;49.33;96644.16;5041408;28;20453;-33
2023/05/26 07:16:44;;;;;;;4.35;3.38;;;;;;;22.45;49.10;96653.16;5037089;28;20060;-33
2023/05/26 07:19:09;;;;;;;5.47;3.30;;;;;;;22.52;49.62;96647.13;5037119;28;20107;-33
2023/05/26 07:21:35;;;;;;;4.72;3.30;;;;;;;22.68;49.37;96651.94;5034099;28;20029;-33
2023/05/26 07:24:01;;;;;;;7.78;3.47;;;;;;;22.64;49.09;96650.66;5037379;28;20457;-33
2023/05/26 07:26:26;;;;;;;4.10;3.35;;;;;;;22.49;49.61;96657.22;5036317;28;20037;-34
2023/05/26 07:28:52;;;;;;;4.68;3.03;;;;;;;22.56;49.76;96648.41;5036271;28;20016;-33
2023/05/26 07:31:18;;;;;;;5.80;3.42;;;;;;;22.63;49.15;96654.69;5042406;28;20435;-33
2023/05/26 07:33:44;;;;;;;3.72;2.88;;;;;;;22.58;49.13;96654.19;5039865;28;20036;-33
2023/05/26 07:36:10;;;;;;;8.45;3.97;;;;;;;22.57;49.51;96649.94;5033383;28;20032;-33
2023/05/26 07:38:35;;;;;;;7.03;3.42;;;;;;;;;;5033121;28;20025;-34
2023/05/26 07:41:00;;;;;;;5.18;3.47;;;;;;;22.52;49.48;96650.66;5033677;28;20108;-33
2023/05/26 07:43:26;;;;;;;8.35;3.30;;;;;;;22.52;49.49;96645.13;5031957;28;20400;-33
2023/05/26 07:45:51;;;;;;;9.45;3.70;;;;;;;22.52;49.38;96642.38;5034427;28;20415;-33
2023/05/26 07:48:17;;;;;;;7.75;3.53;;;;;;;22.50;49.11;96647.63;5046764;28;20130;-34
2023/05/26 07:50:42;;;;;;;8.13;3.15;;;;;;;22.51;49.51;96654.69;5040398;28;20028;-33
2023/05/26 07:53:08;;;;;;;10.65;3.30;;;;;;;22.56;49.96;96659.47;5033606;28;20064;-33
2023/05/26 07:55:33;;;;;;;7.75;3.20;;;;;;;22.60;49.35;96656.47;5033541;28;20095;-33
2023/05/26 07:57:59;;;;;;;11.10;3.40;;;;;;;22.54;49.88;96650.91;5033818;28;20026;-34
2023/05/26 08:00:25;;;;;;;4.03;3.60;;;;;;;22.66;49.80;96653.69;5033195;28;20373;-33
2023/05/26 08:02:51;;;;;;;8.27;3.70;;;;;;;22.57;50.10;96655.47;5040017;28;20100;-33
2023/05/26 08:05:16;;;;;;;7.32;3.50;;;;;;;22.58;50.17;96647.91;5034007;28;20017;-33
2023/05/26 08:07:42;;;;;;;7.28;3.78;;;;;;;22.65;50.02;96650.19;5033342;28;20079;-33
2023/05/26 08:10:08;;;;;;;4.47;3.53;;;;;;;22.63;49.87;96651.91;5033167;28;20029;-33
2023/05/26 08:12:33;;;;;;;5.95;3.30;;;;;;;22.54;50.76;96644.63;5033431;28;20116;-33
2023/05/26 08:14:59;;;;;;;3.78;3.35;;;;;;;22.60;50.38;96650.19;5033279;28;20076;-34
2023/05/26 08:17:24;;;;;;;5.07;3.40;;;;;;;22.58;50.51;96654.19;5040342;28;20117;-33
2023/05/26 08:19:50;;;;;;;3.92;3.00;;;;;;;22.70;50.18;96654.22;5040662;28;20021;-33
2023/05/26 08:22:15;;;;;;;11.98;3.78;;;;;;;22.71;50.45;96653.72;5033070;28;20112;-34
2023/05/26 08:24:40;;;;;;;7.43;3.17;;;;;;;22.66;50.53;96648.16;5040971;28;20100;-33
2023/05/26 08:27:06;;;;;;;8.98;3.28;;;;;;;22.70;50.33;96652.19;5033177;28;20014;-33
2023/05/26 08:29:31;;;;;;;6.03;3.28;;;;;;;22.73;50.48;96648.44;5038468;28;20033;-33
2023/05/26 08:31:57;;;;;;;9.25;3.28;;;;;;;22.72;50.38;96651.69;5036436;28;20028;-33
2023/05/26 08:34:23;;;;;;;8.93;3.50;;;;;;;22.77;50.33;96657.25;5036833;28;20070;-33
2023/05/26 08:36:48;;;;;;;13.02;3.72;;;;;;;22.65;50.32;96660.47;5040546;28;20469;-34
2023/05/26 08:39:14;;;;;;;6.00;3.47;;;;;;;22.78;50.35;96655.25;5033295;28;20103;-33
2023/05/26 08:41:47;;;;;;;7.80;3.78;;;;;;;22.75;50.49;96659.00;5033102;28;20036;-33
2023/05/26 08:44:15;;;;;;;11.68;3.47;;;;;;;22.73;50.74;96659.50;5033027;28;20108;-33
2023/05/26 08:46:43;;;;;;;15.77;4.47;;;;;;;22.78;51.15;96660.78;5035018;28;20117;-33
2023/05/26 08:49:11;;;;;;;9.73;3.70;;;;;;;22.81;50.85;96662.53;5035431;28;20022;-34
2023/05/26 08:51:44;;;;;;;6.80;3.40;;;;;;;22.77;51.31;96664.78;5042467;28;20024;-34
2023/05/26 08:54:09;;;;;;;7.32;3.60;;;;;;;22.83;51.27;96657.25;5036722;28;20065;-33
2023/05/26 08:56:36;;;;;;;7.50;3.53;;;;;;;22.86;51.68;96662.56;5036299;28;20025;-34
2023/05/26 08:59:02;;;;;;;8.60;3.78;;;;;;;22.77;52.12;96664.78;5036291;28;20017;-33
2023/05/26 09:01:27;;;;;;;8.77;3.72;;;;;;;22.81;51.86;96663.28;5040138;28;20119;-33
2023/05/26 09:03:53;;;;;;;6.40;3.47;;;;;;;22.88;52.04;96660.00;5039893;28;20477;-33
2023/05/26 09:06:18;;;;;;;9.82;3.72;;;;;;;22.88;52.29;96660.00;5043635;28;20026;-33
2023/05/26 09:08:44;;;;;;;7.05;3.55;;;;;;;22.85;52.15;96660.28;5043263;28;20477;-33
2023/05/26 09:11:24;;;;;;;6.25;3.80;;;;;;;22.97;51.32;96650.72;5036107;28;20033;-33
2023/05/26 09:13:55;;;;;;;7.65;3.45;;;;;;;22.84;51.78;96653.25;5030628;28;20018;-33
2023/05/26 09:16:25;;;;;;;5.60;3.42;;;;;;;22.89;51.50;96656.00;5036010;28;20489;-33
2023/05/26 09:18:56;;;;;;;8.23;4.05;;;;;;;22.97;50.79;96653.50;5043023;28;20084;-33
2023/05/26 09:21:21;;;;;;;6.93;3.70;;;;;;;22.97;50.74;96661.03;5043206;28;20029;-34
2023/05/26 09:23:55;;;;;;;4.75;3.13;;;;;;;22.93;50.62;96658.50;5039057;28;20024;-34
2023/05/26 09:26:29;;;;;;;4.95;3.53;;;;;;;22.91;50.93;96659.00;5038563;28;20151;-33
2023/05/26 09:28:55;;;;;;;5.45;3.53;;;;;;;22.98;50.72;96660.53;5032147;28;20262;-33
2023/05/26 09:31:20;;;;;;;6.35;3.70;;;;;;;23.11;50.29;96655.25;5039584;28;20102;-33
2023/05/26 09:33:46;;;;;;;7.13;3.83;;;;;;;23.11;50.27;96666.31;5037406;28;20029;-35
2023/05/26 09:36:12;;;;;;;7.15;3.70;;;;;;;22.99;50.67;96656.53;5041387;28;20025;-33
2023/05/26 09:38:41;;;;;;;6.47;3.33;;;;;;;23.06;50.49;96647.69;5042806;28;20025;-33
2023/05/26 09:41:06;;;;;;;11.23;3.85;;;;;;;23.11;51.09;96646.19;5033610;28;20481;-33
2023/05/26 09:43:33;;;;;;;5.38;3.70;;;;;;;23.07;50.94;96654.75;5035243;28;20032;-33
2023/05/26 09:45:58;;;;;;;8.40;4.18;;;;;;;23.12;50.21;96650.47;5035459;28;20033;-33
2023/05/26 09:48:23;;;;;;;7.70;3.70;;;;;;;23.11;50.69;96649.72;5035613;28;20385;-33
2023/05/26 09:50:51;;;;;;;10.50;4.10;;;;;;;23.14;51.32;96643.16;5031884;28;20017;-33
2023/05/26 09:53:16;;;;;;;5.88;3.30;;;;;;;23.29;50.93;96654.72;5030744;28;20057;-33
2023/05/26 09:55:43;;;;;;;6.70;3.60;;;;;;;23.16;51.56;96646.19;5037733;28;20022;-33
2023/05/26 09:58:11;;;;;;;6.13;4.00;;;;;;;23.19;51.71;96647.19;5036242;28;20108;-33
2023/05/26 10:00:39;;;;;;;7.40;3.85;;;;;;;23.15;51.45;96644.66;5040694;28;20552;-33
2023/05/26 10:03:10;;;;;;;4.88;3.78;;;;;;;23.19;51.11;96650.72;5035611;28;20068;-34
2023/05/26 10:05:45;;;;;;;4.90;3.40;;;;;;;23.41;50.75;96658.22;5033650;28;20400;-33
2023/05/26 10:08:11;;;;;;;6.03;3.53;;;;;;;23.33;50.76;96643.41;5042352;28;20024;-33
2023/05/26 10:10:38;;;;;;;5.40;3.50;;;;;;;23.33;51.08;96648.94;5041860;28;20040;-33
2023/05/26 10:13:06;;;;;;;4.05;3.30;;;;;;;23.36;51.03;96647.94;5035115;28;20029;-34
2023/05/26 10:15:33;;;;;;;5.20;3.67;;;;;;;23.29;50.89;96651.19;5042167;28;20028;-33
2023/05/26 10:18:01;;;;;;;8.30;3.40;;;;;;;23.37;50.88;96645.91;5034941;28;20025;-33
2023/05/26 10:20:27;;;;;;;5.18;3.30;;;;;;;23.36;50.90;96647.94;5035103;28;20025;-33
2023/05/26 10:23:03;;;;;;;6.40;3.55;;;;;;;23.38;50.94;96647.38;5038603;28;20025;-33
2023/05/26 10:25:53;;;;;;;4.55;3.20;;;;;;;23.31;50.71;96651.44;5037421;28;20026;-33
2023/05/26 10:28:42;;;;;;;5.50;3.60;;;;;;;23.34;50.65;96644.16;5038318;28;20449;-34
2023/05/26 10:31:08;;;;;;;5.75;3.53;;;;;;;23.34;50.18;96641.38;5034599;28;20025;-33
2023/05/26 10:33:46;;;;;;;6.97;3.70;;;;;;;23.36;50.40;96647.94;5034798;28;20027;-34
2023/05/26 10:36:17;;;;;;;4.28;3.30;;;;;;;23.42;50.62;96645.88;5029180;28;20032;-34
2023/05/26 10:38:48;;;;;;;6.65;3.75;;;;;;;23.61;49.91;96649.63;5034681;28;20026;-33
2023/05/26 10:41:48;;;;;;;9.25;3.63;;;;;;;23.51;49.81;96640.09;5040331;28;20487;-33
2023/05/26 10:44:44;;;;;;;6.43;3.60;;;;;;;23.53;50.00;96642.34;5034342;28;20018;-33
2023/05/26 10:47:16;;;;;;;5.55;3.50;;;;;;;23.58;49.89;96647.13;5044800;28;20496;-34
2023/05/26 10:49:52;;;;;;;10.32;3.40;;;;;;;23.51;49.78;96642.88;5035786;28;20485;-33
2023/05/26 10:52:18;;;;;;;9.13;3.40;;;;;;;23.53;49.82;96637.56;5027370;28;20037;-33
2023/05/26 10:54:44;;;;;;;9.45;3.38;;;;;;;23.62;49.81;96640.06;5034239;28;20045;-33
2023/05/26 10:57:30;;;;;;;8.02;3.50;;;;;;;23.79;49.55;96640.00;5041196;28;20029;-33
2023/05/26 10:59:56;;;;;;;6.95;3.70;;;;;;;23.65;49.73;96632.75;5040808;28;20021;-33
2023/05/26 11:02:22;;;;;;;4.50;3.53;;;;;;;23.62;49.72;96634.53;5034351;28;20047;-33
2023/05/26 11:04:49;;;;;;;6.63;3.60;;;;;;;23.63;49.60;96632.50;5033932;28;20021;-33
2023/05/26 11:07:29;;;;;;;7.75;3.65;;;;;;;23.63;49.35;96643.59;5041470;28;20013;-33
2023/05/26 11:10:01;;;;;;;4.32;3.47;;;;;;;23.69;49.62;96641.56;5034011;28;20032;-33
2023/05/26 11:12:31;;;;;;;3.80;3.22;;;;;;;23.69;49.55;96636.03;5048024;28;20419;-33
2023/05/26 11:14:57;;;;;;;5.50;3.75;;;;;;;23.80;48.88;96638.00;5039577;28;20460;-34
2023/05/26 11:17:24;;;;;;;4.07;3.42;;;;;;;23.74;49.21;96640.03;5035446;28;20113;-33
2023/05/26 11:19:58;;;;;;;7.80;3.35;;;;;;;23.77;49.22;96628.69;5033538;28;20014;-33
2023/05/26 11:22:24;;;;;;;4.15;3.30;;;;;;;23.71;49.23;96639.03;5034215;28;20028;-33
2023/05/26 11:24:51;;;;;;;3.95;3.20;;;;;;;23.90;48.88;96631.66;5033925;28;20067;-33
2023/05/26 11:27:17;;;;;;;4.38;3.03;;;;;;;23.83;49.13;96632.19;5033684;28;20071;-33
2023/05/26 11:29:45;;;;;;;3.75;3.15;;;;;;;23.81;48.91;96626.41;5048040;28;20065;-33
2023/05/26 11:32:12;;;;;;;3.40;2.92;;;;;;;23.86;48.30;96638.75;5041320;28;20022;-34
2023/05/26 11:34:38;;;;;;;5.80;3.50;;;;;;;23.83;48.56;96634.22;5033753;28;20108;-33